FDX522 KMCO-KMEM
Flight info
| Callsign | FDX522 |
|---|---|
| Flight time | 1h 41m |
| Altitude | 36000 |
| Route | RDSOX1 JFRYS PATOY Q116 GOOGY WASER VANZE3 |
| Aircraft | MD11/H-SDE1E2E3FGHIJ2J3J4J5M1RWXY/LB1D1 |
Departure
| Time | 2026-04-25 19:29 |
|---|---|
| Airport | Orlando International Airport (KMCO) |
Arrival
| Time | 2026-04-25 21:10 |
|---|---|
| Airport | Memphis International Airport (KMEM) |
| Time | Latitude | Longitude | Altitude | Speed | Heading |
|---|---|---|---|---|---|
| 2026-04-25 18:44 | 28.41476 | -81.33492 | 109 ft | 0 kts | 358° |
| 2026-04-25 19:10 | 28.41473 | -81.33492 | 109 ft | 3 kts | 359° |
| 2026-04-25 19:10 | 28.41450 | -81.33492 | 108 ft | 4 kts | 356° |
| 2026-04-25 19:10 | 28.41427 | -81.33489 | 109 ft | 4 kts | 18° |
| 2026-04-25 19:11 | 28.41409 | -81.33500 | 109 ft | 4 kts | 51° |
| 2026-04-25 19:11 | 28.41401 | -81.33520 | 109 ft | 4 kts | 96° |
| 2026-04-25 19:11 | 28.41402 | -81.33542 | 108 ft | 0 kts | 89° |
| 2026-04-25 19:15 | 28.41402 | -81.33539 | 108 ft | 2 kts | 89° |
| 2026-04-25 19:15 | 28.41403 | -81.33482 | 109 ft | 9 kts | 89° |
| 2026-04-25 19:16 | 28.41404 | -81.33409 | 110 ft | 11 kts | 89° |
| 2026-04-25 19:16 | 28.41406 | -81.33294 | 111 ft | 16 kts | 89° |
| 2026-04-25 19:16 | 28.41405 | -81.33175 | 109 ft | 14 kts | 90° |
| 2026-04-25 19:16 | 28.41412 | -81.33071 | 112 ft | 12 kts | 71° |
| 2026-04-25 19:17 | 28.41452 | -81.33006 | 113 ft | 9 kts | 47° |
| 2026-04-25 19:17 | 28.41491 | -81.32960 | 113 ft | 8 kts | 46° |
| 2026-04-25 19:17 | 28.41536 | -81.32919 | 116 ft | 9 kts | 27° |
| 2026-04-25 19:17 | 28.41599 | -81.32909 | 113 ft | 10 kts | 1° |
| 2026-04-25 19:18 | 28.41669 | -81.32909 | 115 ft | 10 kts | 360° |
| 2026-04-25 19:18 | 28.41734 | -81.32910 | 116 ft | 9 kts | 360° |
| 2026-04-25 19:18 | 28.41809 | -81.32911 | 114 ft | 12 kts | 359° |
| 2026-04-25 19:18 | 28.41900 | -81.32913 | 112 ft | 14 kts | 359° |
| 2026-04-25 19:19 | 28.42011 | -81.32915 | 110 ft | 17 kts | 360° |
| 2026-04-25 19:19 | 28.42134 | -81.32915 | 110 ft | 18 kts | 359° |
| 2026-04-25 19:19 | 28.42256 | -81.32916 | 110 ft | 18 kts | 359° |
| 2026-04-25 19:19 | 28.42340 | -81.32917 | 108 ft | 19 kts | 359° |
| 2026-04-25 19:20 | 28.42515 | -81.32920 | 107 ft | 18 kts | 0° |
| 2026-04-25 19:20 | 28.42628 | -81.32920 | 110 ft | 15 kts | 360° |
| 2026-04-25 19:20 | 28.42720 | -81.32920 | 108 ft | 13 kts | 360° |
| 2026-04-25 19:20 | 28.42813 | -81.32921 | 112 ft | 14 kts | 359° |
| 2026-04-25 19:21 | 28.42913 | -81.32923 | 111 ft | 14 kts | 359° |
| 2026-04-25 19:21 | 28.43071 | -81.32925 | 116 ft | 10 kts | 0° |
| 2026-04-25 19:21 | 28.43145 | -81.32925 | 118 ft | 13 kts | 0° |
| 2026-04-25 19:22 | 28.43248 | -81.32926 | 114 ft | 17 kts | 359° |
| 2026-04-25 19:22 | 28.43373 | -81.32927 | 113 ft | 18 kts | 360° |
| 2026-04-25 19:22 | 28.43622 | -81.32930 | 112 ft | 18 kts | 359° |
| 2026-04-25 19:23 | 28.43769 | -81.32932 | 109 ft | 24 kts | 360° |
| 2026-04-25 19:23 | 28.44040 | -81.32881 | 110 ft | 17 kts | 23° |
| 2026-04-25 19:23 | 28.44156 | -81.32863 | 110 ft | 17 kts | 359° |
| 2026-04-25 19:24 | 28.44269 | -81.32864 | 110 ft | 15 kts | 359° |
| 2026-04-25 19:24 | 28.44367 | -81.32865 | 111 ft | 14 kts | 359° |
| 2026-04-25 19:24 | 28.44537 | -81.32867 | 113 ft | 11 kts | 360° |
| 2026-04-25 19:25 | 28.44705 | -81.32868 | 114 ft | 11 kts | 359° |
| 2026-04-25 19:25 | 28.44774 | -81.32857 | 118 ft | 9 kts | 24° |
| 2026-04-25 19:25 | 28.44808 | -81.32807 | 117 ft | 8 kts | 71° |
| 2026-04-25 19:26 | 28.44815 | -81.32738 | 117 ft | 10 kts | 86° |
| 2026-04-25 19:26 | 28.44820 | -81.32649 | 112 ft | 12 kts | 87° |
| 2026-04-25 19:26 | 28.44821 | -81.32556 | 112 ft | 11 kts | 89° |
| 2026-04-25 19:26 | 28.44822 | -81.32474 | 111 ft | 10 kts | 89° |
| 2026-04-25 19:27 | 28.44822 | -81.32394 | 113 ft | 10 kts | 89° |
| 2026-04-25 19:27 | 28.44823 | -81.32339 | 110 ft | 11 kts | 89° |
| 2026-04-25 19:27 | 28.44808 | -81.32234 | 109 ft | 5 kts | 135° |
| 2026-04-25 19:27 | 28.44793 | -81.32231 | 109 ft | 1 kts | 177° |
| 2026-04-25 19:28 | 28.44781 | -81.32231 | 109 ft | 6 kts | 177° |
| 2026-04-25 19:28 | 28.44506 | -81.32226 | 111 ft | 89 kts | 180° |
| 2026-04-25 19:28 | 28.43569 | -81.32219 | 113 ft | 177 kts | 180° |
| 2026-04-25 19:28 | 28.42207 | -81.32174 | 642 ft | 201 kts | 178° |
| 2026-04-25 19:29 | 28.40856 | -81.32064 | 2013 ft | 191 kts | 175° |
| 2026-04-25 19:29 | 28.39569 | -81.32039 | 3347 ft | 183 kts | 192° |
| 2026-04-25 19:29 | 28.38266 | -81.32576 | 3930 ft | 218 kts | 207° |
| 2026-04-25 19:29 | 28.36815 | -81.33472 | 4308 ft | 254 kts | 210° |
| 2026-04-25 19:30 | 28.35286 | -81.34489 | 5414 ft | 257 kts | 210° |
| 2026-04-25 19:30 | 28.33920 | -81.35378 | 7468 ft | 200 kts | 210° |
| 2026-04-25 19:30 | 28.32694 | -81.36155 | 8462 ft | 223 kts | 210° |
| 2026-04-25 19:30 | 28.31181 | -81.37073 | 8516 ft | 264 kts | 209° |
| 2026-04-25 19:31 | 28.29486 | -81.38108 | 8972 ft | 282 kts | 209° |
| 2026-04-25 19:31 | 28.27741 | -81.39169 | 9819 ft | 287 kts | 209° |
| 2026-04-25 19:31 | 28.25958 | -81.40243 | 10278 ft | 307 kts | 211° |
| 2026-04-25 19:31 | 28.24147 | -81.41711 | 10418 ft | 334 kts | 227° |
| 2026-04-25 19:32 | 28.22799 | -81.43938 | 10651 ft | 354 kts | 249° |
| 2026-04-25 19:32 | 28.22289 | -81.46664 | 11483 ft | 356 kts | 270° |
| 2026-04-25 19:32 | 28.22663 | -81.49422 | 12392 ft | 356 kts | 290° |
| 2026-04-25 19:32 | 28.22983 | -81.50300 | 12742 ft | 355 kts | 297° |
| 2026-04-25 19:33 | 28.25378 | -81.54124 | 14078 ft | 362 kts | 310° |
| 2026-04-25 19:33 | 28.27036 | -81.56303 | 14860 ft | 367 kts | 311° |
| 2026-04-25 19:33 | 28.28729 | -81.58488 | 15633 ft | 371 kts | 310° |
| 2026-04-25 19:33 | 28.30367 | -81.60768 | 16390 ft | 375 kts | 306° |
| 2026-04-25 19:34 | 28.31827 | -81.63232 | 17114 ft | 379 kts | 301° |
| 2026-04-25 19:34 | 28.33109 | -81.65861 | 17836 ft | 382 kts | 297° |
| 2026-04-25 19:34 | 28.34259 | -81.68596 | 18529 ft | 386 kts | 294° |
| 2026-04-25 19:34 | 28.35346 | -81.71439 | 18932 ft | 397 kts | 293° |
| 2026-04-25 19:35 | 28.36386 | -81.74323 | 19356 ft | 394 kts | 292° |
| 2026-04-25 19:35 | 28.37400 | -81.77226 | 20054 ft | 398 kts | 292° |
| 2026-04-25 19:35 | 28.38417 | -81.80164 | 20668 ft | 402 kts | 292° |
| 2026-04-25 19:35 | 28.39442 | -81.83136 | 21270 ft | 406 kts | 292° |
| 2026-04-25 19:36 | 28.40478 | -81.86142 | 21852 ft | 411 kts | 292° |
| 2026-04-25 19:36 | 28.41525 | -81.89179 | 22438 ft | 415 kts | 292° |
| 2026-04-25 19:36 | 28.42424 | -81.92306 | 22938 ft | 420 kts | 283° |
| 2026-04-25 19:36 | 28.42815 | -81.95572 | 23482 ft | 426 kts | 276° |
| 2026-04-25 19:37 | 28.42927 | -81.98954 | 23998 ft | 431 kts | 272° |
| 2026-04-25 19:37 | 28.42932 | -82.02381 | 24516 ft | 435 kts | 272° |
| 2026-04-25 19:37 | 28.42918 | -82.05831 | 25056 ft | 438 kts | 272° |
| 2026-04-25 19:37 | 28.42920 | -82.09306 | 25581 ft | 442 kts | 272° |
| 2026-04-25 19:38 | 28.42944 | -82.12809 | 26063 ft | 445 kts | 272° |
| 2026-04-25 19:38 | 28.42983 | -82.16334 | 26542 ft | 448 kts | 272° |
| 2026-04-25 19:38 | 28.43031 | -82.19891 | 27004 ft | 452 kts | 273° |
| 2026-04-25 19:38 | 28.43085 | -82.23471 | 27451 ft | 455 kts | 272° |
| 2026-04-25 19:39 | 28.43139 | -82.27075 | 27890 ft | 458 kts | 272° |
| 2026-04-25 19:39 | 28.43198 | -82.30696 | 28324 ft | 461 kts | 273° |
| 2026-04-25 19:39 | 28.43380 | -82.34344 | 28741 ft | 463 kts | 277° |
| 2026-04-25 19:39 | 28.43885 | -82.37956 | 29133 ft | 465 kts | 284° |
| 2026-04-25 19:40 | 28.44812 | -82.41479 | 29526 ft | 466 kts | 292° |
| 2026-04-25 19:40 | 28.46162 | -82.44823 | 29934 ft | 468 kts | 300° |
| 2026-04-25 19:40 | 28.47907 | -82.47953 | 30340 ft | 470 kts | 307° |
| 2026-04-25 19:40 | 28.50001 | -82.50809 | 30774 ft | 471 kts | 314° |
| 2026-04-25 19:41 | 28.52400 | -82.53341 | 31269 ft | 470 kts | 321° |
| 2026-04-25 19:41 | 28.55040 | -82.55512 | 31798 ft | 468 kts | 326° |
| 2026-04-25 19:41 | 28.57811 | -82.57434 | 32309 ft | 466 kts | 329° |
| 2026-04-25 19:41 | 28.58762 | -82.58058 | 32480 ft | 465 kts | 329° |
| 2026-04-25 19:42 | 28.63428 | -82.61060 | 33243 ft | 462 kts | 329° |
| 2026-04-25 19:42 | 28.66219 | -82.62876 | 33706 ft | 460 kts | 329° |
| 2026-04-25 19:42 | 28.68980 | -82.64703 | 34105 ft | 458 kts | 328° |
| 2026-04-25 19:42 | 28.71724 | -82.66543 | 34507 ft | 457 kts | 328° |
| 2026-04-25 19:43 | 28.74454 | -82.68388 | 34886 ft | 456 kts | 328° |
| 2026-04-25 19:43 | 28.76255 | -82.69609 | 35125 ft | 455 kts | 328° |
| 2026-04-25 19:43 | 28.79887 | -82.72078 | 35635 ft | 453 kts | 328° |
| 2026-04-25 19:43 | 28.81676 | -82.73296 | 35845 ft | 453 kts | 328° |
| 2026-04-25 19:44 | 28.84397 | -82.75149 | 35953 ft | 458 kts | 328° |
| 2026-04-25 19:44 | 28.87137 | -82.77018 | 35970 ft | 459 kts | 328° |
| 2026-04-25 19:44 | 28.92598 | -82.80740 | 35984 ft | 455 kts | 328° |
| 2026-04-25 19:45 | 28.98028 | -82.84446 | 35976 ft | 456 kts | 328° |
| 2026-04-25 19:45 | 29.03480 | -82.88169 | 35973 ft | 457 kts | 328° |
| 2026-04-25 19:46 | 29.08893 | -82.91948 | 35972 ft | 455 kts | 325° |
| 2026-04-25 19:46 | 29.14084 | -82.96107 | 35973 ft | 455 kts | 323° |
| 2026-04-25 19:47 | 29.19207 | -83.00374 | 35975 ft | 456 kts | 323° |
| 2026-04-25 19:47 | 29.24351 | -83.04634 | 35972 ft | 456 kts | 323° |
| 2026-04-25 19:48 | 29.29465 | -83.08838 | 35963 ft | 456 kts | 323° |
| 2026-04-25 19:48 | 29.34624 | -83.13067 | 35962 ft | 457 kts | 323° |
| 2026-04-25 19:49 | 29.38951 | -83.16620 | 35963 ft | 457 kts | 323° |
| 2026-04-25 19:49 | 29.44955 | -83.21551 | 35955 ft | 456 kts | 323° |
| 2026-04-25 19:50 | 29.52695 | -83.27925 | 35954 ft | 457 kts | 323° |
| 2026-04-25 19:51 | 29.57862 | -83.32181 | 35955 ft | 458 kts | 323° |
| 2026-04-25 19:51 | 29.63029 | -83.36450 | 35954 ft | 457 kts | 323° |
| 2026-04-25 19:52 | 29.68199 | -83.40722 | 35954 ft | 458 kts | 323° |
| 2026-04-25 19:52 | 29.73368 | -83.44998 | 35954 ft | 458 kts | 323° |
| 2026-04-25 19:53 | 29.78539 | -83.49283 | 35954 ft | 458 kts | 323° |
| 2026-04-25 19:53 | 29.83712 | -83.53574 | 35954 ft | 458 kts | 323° |
| 2026-04-25 19:54 | 29.88876 | -83.57872 | 35954 ft | 458 kts | 322° |
| 2026-04-25 19:54 | 29.94040 | -83.62181 | 35962 ft | 458 kts | 323° |
| 2026-04-25 19:55 | 29.99203 | -83.66486 | 35963 ft | 458 kts | 323° |
| 2026-04-25 19:55 | 30.04372 | -83.70794 | 35963 ft | 458 kts | 323° |
| 2026-04-25 19:56 | 30.09513 | -83.75083 | 35963 ft | 459 kts | 322° |
| 2026-04-25 19:56 | 30.14686 | -83.79407 | 35962 ft | 459 kts | 322° |
| 2026-04-25 19:57 | 30.19853 | -83.83735 | 35954 ft | 458 kts | 322° |
| 2026-04-25 19:57 | 30.25012 | -83.88072 | 35954 ft | 458 kts | 322° |
| 2026-04-25 19:58 | 30.30170 | -83.92404 | 35954 ft | 459 kts | 322° |
| 2026-04-25 19:58 | 30.35338 | -83.96750 | 35947 ft | 459 kts | 322° |
| 2026-04-25 19:59 | 30.40499 | -84.01097 | 35945 ft | 458 kts | 322° |
| 2026-04-25 19:59 | 30.45658 | -84.05449 | 35932 ft | 459 kts | 322° |
| 2026-04-25 20:00 | 30.50812 | -84.09798 | 35925 ft | 458 kts | 322° |
| 2026-04-25 20:00 | 30.55964 | -84.14154 | 35926 ft | 458 kts | 322° |
| 2026-04-25 20:01 | 30.63697 | -84.20704 | 35927 ft | 459 kts | 322° |
| 2026-04-25 20:01 | 30.68850 | -84.25078 | 35926 ft | 459 kts | 322° |
| 2026-04-25 20:02 | 30.73995 | -84.29447 | 35929 ft | 458 kts | 322° |
| 2026-04-25 20:02 | 30.79137 | -84.33819 | 35927 ft | 458 kts | 322° |
| 2026-04-25 20:03 | 30.84282 | -84.38202 | 35920 ft | 458 kts | 321° |
| 2026-04-25 20:03 | 30.89409 | -84.42595 | 35917 ft | 458 kts | 321° |
| 2026-04-25 20:04 | 30.94502 | -84.46958 | 35916 ft | 457 kts | 321° |
| 2026-04-25 20:04 | 30.99629 | -84.51344 | 35909 ft | 457 kts | 321° |
| 2026-04-25 20:05 | 31.04757 | -84.55736 | 35907 ft | 457 kts | 321° |
| 2026-04-25 20:05 | 31.09885 | -84.60133 | 35908 ft | 457 kts | 321° |
| 2026-04-25 20:06 | 31.15010 | -84.64535 | 35909 ft | 457 kts | 321° |
| 2026-04-25 20:06 | 31.20128 | -84.68935 | 35907 ft | 457 kts | 321° |
| 2026-04-25 20:07 | 31.25242 | -84.73340 | 35907 ft | 457 kts | 321° |
| 2026-04-25 20:07 | 31.30359 | -84.77746 | 35916 ft | 457 kts | 321° |
| 2026-04-25 20:08 | 31.35475 | -84.82167 | 35916 ft | 457 kts | 321° |
| 2026-04-25 20:08 | 31.40584 | -84.86590 | 35917 ft | 457 kts | 321° |
| 2026-04-25 20:09 | 31.45561 | -84.90897 | 35916 ft | 457 kts | 321° |
| 2026-04-25 20:09 | 31.50668 | -84.95328 | 35918 ft | 457 kts | 321° |
| 2026-04-25 20:10 | 31.55774 | -84.99782 | 35918 ft | 457 kts | 320° |
| 2026-04-25 20:10 | 31.60874 | -85.04257 | 35919 ft | 458 kts | 320° |
| 2026-04-25 20:11 | 31.65964 | -85.08738 | 35918 ft | 457 kts | 320° |
| 2026-04-25 20:11 | 31.71054 | -85.13224 | 35918 ft | 458 kts | 320° |
| 2026-04-25 20:12 | 31.76147 | -85.17713 | 35918 ft | 458 kts | 320° |
| 2026-04-25 20:12 | 31.79521 | -85.20691 | 35909 ft | 458 kts | 320° |
| 2026-04-25 20:13 | 31.86330 | -85.26710 | 35907 ft | 458 kts | 320° |
| 2026-04-25 20:13 | 31.91395 | -85.31195 | 35908 ft | 458 kts | 320° |
| 2026-04-25 20:14 | 31.96488 | -85.35714 | 35907 ft | 458 kts | 320° |
| 2026-04-25 20:14 | 32.01582 | -85.40237 | 35907 ft | 458 kts | 319° |
| 2026-04-25 20:15 | 32.06668 | -85.44764 | 35902 ft | 458 kts | 319° |
| 2026-04-25 20:15 | 32.11755 | -85.49292 | 35898 ft | 458 kts | 319° |
| 2026-04-25 20:16 | 32.16848 | -85.53834 | 35908 ft | 459 kts | 319° |
| 2026-04-25 20:16 | 32.21943 | -85.58384 | 35917 ft | 459 kts | 319° |
| 2026-04-25 20:17 | 32.27028 | -85.62947 | 35917 ft | 459 kts | 319° |
| 2026-04-25 20:17 | 32.32116 | -85.67518 | 35916 ft | 459 kts | 319° |
| 2026-04-25 20:18 | 32.37195 | -85.72083 | 35916 ft | 458 kts | 319° |
| 2026-04-25 20:18 | 32.42271 | -85.76643 | 35916 ft | 458 kts | 319° |
| 2026-04-25 20:19 | 32.47342 | -85.81202 | 35909 ft | 458 kts | 319° |
| 2026-04-25 20:19 | 32.52413 | -85.85772 | 35907 ft | 458 kts | 319° |
| 2026-04-25 20:20 | 32.57476 | -85.90339 | 35907 ft | 457 kts | 319° |
| 2026-04-25 20:20 | 32.62524 | -85.94903 | 35907 ft | 456 kts | 318° |
| 2026-04-25 20:21 | 32.67575 | -85.99473 | 35908 ft | 456 kts | 318° |
| 2026-04-25 20:21 | 32.72614 | -86.04036 | 35908 ft | 455 kts | 318° |
| 2026-04-25 20:22 | 32.75946 | -86.07059 | 35909 ft | 455 kts | 318° |
| 2026-04-25 20:22 | 32.82671 | -86.13170 | 35908 ft | 455 kts | 318° |
| 2026-04-25 20:23 | 32.87694 | -86.17740 | 35915 ft | 454 kts | 318° |
| 2026-04-25 20:23 | 32.92702 | -86.22319 | 35916 ft | 454 kts | 317° |
| 2026-04-25 20:24 | 32.97700 | -86.26905 | 35925 ft | 454 kts | 317° |
| 2026-04-25 20:24 | 33.02671 | -86.31457 | 35931 ft | 453 kts | 317° |
| 2026-04-25 20:25 | 33.07671 | -86.36036 | 35935 ft | 453 kts | 317° |
| 2026-04-25 20:25 | 33.12670 | -86.40617 | 35943 ft | 453 kts | 317° |
| 2026-04-25 20:26 | 33.17657 | -86.45194 | 35945 ft | 452 kts | 317° |
| 2026-04-25 20:26 | 33.22647 | -86.49783 | 35935 ft | 452 kts | 317° |
| 2026-04-25 20:27 | 33.27623 | -86.54364 | 35936 ft | 451 kts | 317° |
| 2026-04-25 20:27 | 33.32596 | -86.58951 | 35935 ft | 451 kts | 317° |
| 2026-04-25 20:28 | 33.37563 | -86.63539 | 35936 ft | 451 kts | 317° |
| 2026-04-25 20:28 | 33.42524 | -86.68130 | 35935 ft | 451 kts | 317° |
| 2026-04-25 20:29 | 33.47486 | -86.72727 | 35935 ft | 451 kts | 317° |
| 2026-04-25 20:29 | 33.52446 | -86.77327 | 35935 ft | 450 kts | 317° |
| 2026-04-25 20:30 | 33.56558 | -86.81152 | 35935 ft | 450 kts | 316° |
| 2026-04-25 20:30 | 33.62286 | -86.86511 | 35934 ft | 449 kts | 316° |
| 2026-04-25 20:31 | 33.67131 | -86.91235 | 35934 ft | 445 kts | 310° |
| 2026-04-25 20:31 | 33.70718 | -86.97130 | 35929 ft | 434 kts | 295° |
| 2026-04-25 20:32 | 33.73028 | -87.02524 | 35928 ft | 434 kts | 293° |
| 2026-04-25 20:32 | 33.75770 | -87.08987 | 35917 ft | 434 kts | 294° |
| 2026-04-25 20:33 | 33.78602 | -87.15401 | 35916 ft | 434 kts | 295° |
| 2026-04-25 20:33 | 33.80988 | -87.20713 | 35911 ft | 434 kts | 295° |
| 2026-04-25 20:34 | 33.84330 | -87.28131 | 35908 ft | 433 kts | 295° |
| 2026-04-25 20:34 | 33.87195 | -87.34508 | 35908 ft | 433 kts | 295° |
| 2026-04-25 20:35 | 33.90054 | -87.40887 | 35908 ft | 433 kts | 295° |
| 2026-04-25 20:35 | 33.92896 | -87.47260 | 35908 ft | 432 kts | 295° |
| 2026-04-25 20:36 | 33.95727 | -87.53628 | 35909 ft | 432 kts | 295° |
| 2026-04-25 20:36 | 33.98563 | -87.59998 | 35915 ft | 431 kts | 295° |
| 2026-04-25 20:37 | 34.01405 | -87.66370 | 35919 ft | 431 kts | 296° |
| 2026-04-25 20:37 | 34.04513 | -87.72560 | 35916 ft | 431 kts | 299° |
| 2026-04-25 20:38 | 34.07775 | -87.78641 | 35916 ft | 432 kts | 299° |
| 2026-04-25 20:38 | 34.11051 | -87.84720 | 35916 ft | 432 kts | 299° |
| 2026-04-25 20:39 | 34.14309 | -87.90816 | 35916 ft | 432 kts | 299° |
| 2026-04-25 20:39 | 34.17005 | -87.95885 | 35918 ft | 432 kts | 299° |
| 2026-04-25 20:40 | 34.20760 | -88.03000 | 35851 ft | 433 kts | 298° |
| 2026-04-25 20:40 | 34.22356 | -88.06142 | 35726 ft | 433 kts | 298° |
| 2026-04-25 20:40 | 34.23911 | -88.09257 | 35537 ft | 433 kts | 297° |
| 2026-04-25 20:41 | 34.25461 | -88.12379 | 35282 ft | 434 kts | 297° |
| 2026-04-25 20:41 | 34.26996 | -88.15474 | 34815 ft | 436 kts | 297° |
| 2026-04-25 20:41 | 34.28552 | -88.18609 | 34336 ft | 435 kts | 297° |
| 2026-04-25 20:41 | 34.30111 | -88.21749 | 33857 ft | 436 kts | 297° |
| 2026-04-25 20:42 | 34.31671 | -88.24891 | 33384 ft | 437 kts | 297° |
| 2026-04-25 20:42 | 34.33236 | -88.28048 | 32906 ft | 438 kts | 297° |
| 2026-04-25 20:42 | 34.34794 | -88.31205 | 32379 ft | 435 kts | 297° |
| 2026-04-25 20:42 | 34.36335 | -88.34331 | 31809 ft | 430 kts | 298° |
| 2026-04-25 20:43 | 34.37852 | -88.37412 | 31252 ft | 425 kts | 298° |
| 2026-04-25 20:43 | 34.39361 | -88.40478 | 30694 ft | 420 kts | 298° |
| 2026-04-25 20:43 | 34.40846 | -88.43499 | 30150 ft | 415 kts | 298° |
| 2026-04-25 20:43 | 34.42313 | -88.46482 | 29615 ft | 410 kts | 298° |
| 2026-04-25 20:44 | 34.43761 | -88.49432 | 29081 ft | 406 kts | 298° |
| 2026-04-25 20:44 | 34.45201 | -88.52365 | 28555 ft | 403 kts | 298° |
| 2026-04-25 20:44 | 34.46627 | -88.55272 | 28033 ft | 400 kts | 298° |
| 2026-04-25 20:44 | 34.48045 | -88.58166 | 27514 ft | 397 kts | 298° |
| 2026-04-25 20:45 | 34.49451 | -88.61035 | 26997 ft | 395 kts | 298° |
| 2026-04-25 20:45 | 34.50849 | -88.63892 | 26487 ft | 392 kts | 298° |
| 2026-04-25 20:45 | 34.52232 | -88.66723 | 25977 ft | 389 kts | 298° |
| 2026-04-25 20:45 | 34.53606 | -88.69536 | 25477 ft | 386 kts | 298° |
| 2026-04-25 20:46 | 34.54971 | -88.72330 | 24968 ft | 384 kts | 298° |
| 2026-04-25 20:46 | 34.56324 | -88.75104 | 24518 ft | 381 kts | 298° |
| 2026-04-25 20:46 | 34.57669 | -88.77862 | 24045 ft | 380 kts | 298° |
| 2026-04-25 20:46 | 34.59007 | -88.80614 | 23566 ft | 378 kts | 298° |
| 2026-04-25 20:47 | 34.60340 | -88.83358 | 23081 ft | 376 kts | 298° |
| 2026-04-25 20:47 | 34.61666 | -88.86083 | 22602 ft | 374 kts | 298° |
| 2026-04-25 20:47 | 34.62978 | -88.88793 | 22109 ft | 371 kts | 297° |
| 2026-04-25 20:47 | 34.64028 | -88.91635 | 21616 ft | 368 kts | 289° |
| 2026-04-25 20:48 | 34.64766 | -88.94539 | 21086 ft | 361 kts | 285° |
| 2026-04-25 20:48 | 34.65404 | -88.97455 | 20560 ft | 354 kts | 284° |
| 2026-04-25 20:48 | 34.66001 | -89.00333 | 20046 ft | 350 kts | 284° |
| 2026-04-25 20:48 | 34.66596 | -89.03194 | 19543 ft | 347 kts | 284° |
| 2026-04-25 20:49 | 34.67193 | -89.06028 | 19035 ft | 346 kts | 284° |
| 2026-04-25 20:49 | 34.67801 | -89.08840 | 18605 ft | 343 kts | 285° |
| 2026-04-25 20:49 | 34.68433 | -89.11644 | 18103 ft | 344 kts | 285° |
| 2026-04-25 20:49 | 34.69073 | -89.14434 | 17590 ft | 341 kts | 285° |
| 2026-04-25 20:50 | 34.69713 | -89.17203 | 17092 ft | 339 kts | 285° |
| 2026-04-25 20:50 | 34.70350 | -89.19952 | 16578 ft | 337 kts | 285° |
| 2026-04-25 20:50 | 34.70982 | -89.22689 | 16175 ft | 334 kts | 285° |
| 2026-04-25 20:50 | 34.71608 | -89.25400 | 15993 ft | 334 kts | 285° |
| 2026-04-25 20:51 | 34.72220 | -89.28116 | 15904 ft | 334 kts | 285° |
| 2026-04-25 20:51 | 34.72826 | -89.30844 | 15858 ft | 334 kts | 285° |
| 2026-04-25 20:51 | 34.73428 | -89.33567 | 15793 ft | 334 kts | 285° |
| 2026-04-25 20:51 | 34.74032 | -89.36293 | 15729 ft | 334 kts | 285° |
| 2026-04-25 20:52 | 34.74635 | -89.39016 | 15673 ft | 334 kts | 285° |
| 2026-04-25 20:52 | 34.75033 | -89.40816 | 15634 ft | 333 kts | 285° |
| 2026-04-25 20:52 | 34.75838 | -89.44462 | 15272 ft | 333 kts | 285° |
| 2026-04-25 20:52 | 34.76437 | -89.47175 | 14834 ft | 331 kts | 285° |
| 2026-04-25 20:53 | 34.77208 | -89.49796 | 14372 ft | 330 kts | 294° |
| 2026-04-25 20:53 | 34.78288 | -89.52255 | 13902 ft | 329 kts | 299° |
| 2026-04-25 20:53 | 34.79461 | -89.54637 | 13421 ft | 327 kts | 300° |
| 2026-04-25 20:53 | 34.80656 | -89.56984 | 12963 ft | 327 kts | 300° |
| 2026-04-25 20:54 | 34.81845 | -89.59304 | 12537 ft | 325 kts | 301° |
| 2026-04-25 20:54 | 34.83034 | -89.61626 | 12276 ft | 323 kts | 301° |
| 2026-04-25 20:54 | 34.84192 | -89.63902 | 12182 ft | 307 kts | 300° |
| 2026-04-25 20:54 | 34.85267 | -89.66021 | 12048 ft | 286 kts | 301° |
| 2026-04-25 20:55 | 34.86316 | -89.68099 | 11960 ft | 287 kts | 300° |
| 2026-04-25 20:55 | 34.87369 | -89.70187 | 11942 ft | 290 kts | 299° |
| 2026-04-25 20:55 | 34.88427 | -89.72272 | 11873 ft | 288 kts | 300° |
| 2026-04-25 20:55 | 34.89484 | -89.74344 | 11818 ft | 286 kts | 300° |
| 2026-04-25 20:56 | 34.90523 | -89.76433 | 11458 ft | 288 kts | 299° |
| 2026-04-25 20:56 | 34.91553 | -89.78516 | 11031 ft | 285 kts | 301° |
| 2026-04-25 20:56 | 34.92621 | -89.80550 | 10593 ft | 285 kts | 307° |
| 2026-04-25 20:56 | 34.94110 | -89.82134 | 10235 ft | 283 kts | 326° |
| 2026-04-25 20:57 | 34.95773 | -89.83300 | 10093 ft | 268 kts | 330° |
| 2026-04-25 20:57 | 34.97372 | -89.84325 | 9978 ft | 252 kts | 330° |
| 2026-04-25 20:57 | 34.98895 | -89.85293 | 9821 ft | 242 kts | 332° |
| 2026-04-25 20:57 | 35.00501 | -89.85878 | 9471 ft | 245 kts | 352° |
| 2026-04-25 20:58 | 35.02223 | -89.86016 | 9024 ft | 250 kts | 356° |
| 2026-04-25 20:58 | 35.03967 | -89.86061 | 8548 ft | 251 kts | 358° |
| 2026-04-25 20:58 | 35.05718 | -89.86092 | 8103 ft | 252 kts | 358° |
| 2026-04-25 20:58 | 35.07475 | -89.86122 | 7663 ft | 253 kts | 358° |
| 2026-04-25 20:59 | 35.09231 | -89.86155 | 7253 ft | 252 kts | 358° |
| 2026-04-25 20:59 | 35.10982 | -89.86190 | 6860 ft | 251 kts | 358° |
| 2026-04-25 20:59 | 35.12700 | -89.86225 | 6445 ft | 243 kts | 358° |
| 2026-04-25 20:59 | 35.14362 | -89.86261 | 6063 ft | 234 kts | 359° |
| 2026-04-25 21:00 | 35.15969 | -89.86295 | 5700 ft | 229 kts | 359° |
| 2026-04-25 21:00 | 35.16507 | -89.86305 | 5576 ft | 229 kts | 359° |
| 2026-04-25 21:00 | 35.20754 | -89.86400 | 4654 ft | 230 kts | 359° |
| 2026-04-25 21:01 | 35.22354 | -89.86445 | 4313 ft | 230 kts | 359° |
| 2026-04-25 21:01 | 35.23952 | -89.86498 | 3979 ft | 229 kts | 359° |
| 2026-04-25 21:01 | 35.25545 | -89.86554 | 3634 ft | 228 kts | 358° |
| 2026-04-25 21:01 | 35.27117 | -89.86614 | 3305 ft | 225 kts | 359° |
| 2026-04-25 21:02 | 35.28671 | -89.86677 | 3052 ft | 219 kts | 358° |
| 2026-04-25 21:02 | 35.30120 | -89.87152 | 2976 ft | 222 kts | 329° |
| 2026-04-25 21:02 | 35.31153 | -89.88534 | 3004 ft | 225 kts | 296° |
| 2026-04-25 21:02 | 35.31456 | -89.90394 | 3012 ft | 226 kts | 270° |
| 2026-04-25 21:03 | 35.31405 | -89.92333 | 3013 ft | 228 kts | 268° |
| 2026-04-25 21:03 | 35.31328 | -89.94273 | 2993 ft | 228 kts | 268° |
| 2026-04-25 21:03 | 35.31255 | -89.96212 | 3004 ft | 229 kts | 268° |
| 2026-04-25 21:03 | 35.31146 | -89.98144 | 2984 ft | 228 kts | 258° |
| 2026-04-25 21:04 | 35.30455 | -89.99861 | 2984 ft | 226 kts | 226° |
| 2026-04-25 21:04 | 35.29082 | -90.00876 | 3024 ft | 249 kts | 194° |
| 2026-04-25 21:04 | 35.27362 | -90.00985 | 3004 ft | 249 kts | 167° |
| 2026-04-25 21:04 | 35.25832 | -90.00205 | 2985 ft | 233 kts | 148° |
| 2026-04-25 21:05 | 35.24446 | -89.99174 | 2998 ft | 226 kts | 148° |
| 2026-04-25 21:05 | 35.23178 | -89.98251 | 2959 ft | 198 kts | 150° |
| 2026-04-25 21:05 | 35.21862 | -89.97808 | 2988 ft | 197 kts | 174° |
| 2026-04-25 21:05 | 35.20487 | -89.97679 | 2997 ft | 198 kts | 174° |
| 2026-04-25 21:06 | 35.19156 | -89.97585 | 3003 ft | 181 kts | 177° |
| 2026-04-25 21:06 | 35.17939 | -89.97557 | 2787 ft | 170 kts | 178° |
| 2026-04-25 21:06 | 35.16789 | -89.97540 | 2582 ft | 162 kts | 178° |
| 2026-04-25 21:06 | 35.16054 | -89.97522 | 2451 ft | 158 kts | 178° |
| 2026-04-25 21:07 | 35.14595 | -89.97489 | 2193 ft | 156 kts | 178° |
| 2026-04-25 21:07 | 35.13511 | -89.97464 | 2006 ft | 155 kts | 178° |
| 2026-04-25 21:07 | 35.12444 | -89.97443 | 1801 ft | 152 kts | 178° |
| 2026-04-25 21:07 | 35.11374 | -89.97420 | 1559 ft | 157 kts | 181° |
| 2026-04-25 21:08 | 35.10272 | -89.97399 | 1402 ft | 160 kts | 181° |
| 2026-04-25 21:08 | 35.09161 | -89.97378 | 1169 ft | 158 kts | 181° |
| 2026-04-25 21:08 | 35.08067 | -89.97358 | 946 ft | 157 kts | 181° |
| 2026-04-25 21:08 | 35.06973 | -89.97332 | 735 ft | 157 kts | 181° |
| 2026-04-25 21:09 | 35.04802 | -89.97281 | 352 ft | 154 kts | 180° |
| 2026-04-25 21:09 | 35.03870 | -89.97275 | 318 ft | 106 kts | 179° |
| 2026-04-25 21:09 | 35.03331 | -89.97263 | 314 ft | 51 kts | 179° |
| 2026-04-25 21:10 | 35.03013 | -89.97258 | 307 ft | 40 kts | 179° |
| 2026-04-25 21:10 | 35.02849 | -89.97255 | 307 ft | 15 kts | 179° |
| 2026-04-25 21:10 | 35.02742 | -89.97253 | 304 ft | 16 kts | 179° |
| 2026-04-25 21:10 | 35.02631 | -89.97243 | 304 ft | 15 kts | 164° |
| 2026-04-25 21:11 | 35.02567 | -89.97159 | 304 ft | 13 kts | 107° |
| 2026-04-25 21:11 | 35.02587 | -89.97067 | 303 ft | 11 kts | 50° |
| 2026-04-25 21:11 | 35.02649 | -89.97029 | 303 ft | 12 kts | 12° |
| 2026-04-25 21:11 | 35.02758 | -89.97031 | 305 ft | 16 kts | 354° |
| 2026-04-25 21:12 | 35.02864 | -89.97059 | 306 ft | 15 kts | 349° |
| 2026-04-25 21:12 | 35.02975 | -89.97072 | 308 ft | 20 kts | 358° |
| 2026-04-25 21:12 | 35.03129 | -89.97076 | 311 ft | 22 kts | 359° |
| 2026-04-25 21:12 | 35.03178 | -89.97077 | 313 ft | 20 kts | 359° |
| 2026-04-25 21:13 | 35.03387 | -89.97081 | 315 ft | 17 kts | 359° |
| 2026-04-25 21:13 | 35.03526 | -89.97083 | 317 ft | 25 kts | 359° |
| 2026-04-25 21:13 | 35.03698 | -89.97087 | 318 ft | 24 kts | 359° |
| 2026-04-25 21:13 | 35.03860 | -89.97090 | 316 ft | 23 kts | 359° |
| 2026-04-25 21:14 | 35.04017 | -89.97095 | 317 ft | 22 kts | 358° |
| 2026-04-25 21:14 | 35.04167 | -89.97098 | 319 ft | 21 kts | 0° |
| 2026-04-25 21:14 | 35.04316 | -89.97093 | 319 ft | 21 kts | 8° |
| 2026-04-25 21:14 | 35.04456 | -89.97062 | 321 ft | 20 kts | 2° |
| 2026-04-25 21:15 | 35.04588 | -89.97058 | 325 ft | 18 kts | 359° |
| 2026-04-25 21:15 | 35.04709 | -89.97063 | 327 ft | 16 kts | 358° |
| 2026-04-25 21:15 | 35.04818 | -89.97066 | 327 ft | 15 kts | 358° |
| 2026-04-25 21:15 | 35.04916 | -89.97066 | 327 ft | 14 kts | 360° |
| 2026-04-25 21:16 | 35.05024 | -89.97063 | 328 ft | 17 kts | 4° |
| 2026-04-25 21:16 | 35.05150 | -89.97043 | 322 ft | 20 kts | 8° |
| 2026-04-25 21:16 | 35.05303 | -89.97015 | 310 ft | 24 kts | 9° |
| 2026-04-25 21:16 | 35.05427 | -89.96990 | 310 ft | 15 kts | 8° |
| 2026-04-25 21:17 | 35.05519 | -89.96973 | 310 ft | 9 kts | 8° |
| 2026-04-25 21:17 | 35.05575 | -89.96962 | 310 ft | 8 kts | 9° |
| 2026-04-25 21:17 | 35.05631 | -89.96952 | 312 ft | 10 kts | 8° |
| 2026-04-25 21:17 | 35.05721 | -89.96935 | 311 ft | 14 kts | 8° |
| 2026-04-25 21:18 | 35.05809 | -89.96919 | 312 ft | 12 kts | 8° |
| 2026-04-25 21:18 | 35.05857 | -89.96911 | 314 ft | 9 kts | 4° |
| 2026-04-25 21:18 | 35.05913 | -89.96943 | 315 ft | 6 kts | 310° |
| 2026-04-25 21:18 | 35.05924 | -89.96974 | 315 ft | 6 kts | 288° |
| 2026-04-25 21:19 | 35.05926 | -89.97032 | 313 ft | 8 kts | 266° |
| 2026-04-25 21:19 | 35.05936 | -89.97090 | 312 ft | 5 kts | 310° |
| 2026-04-25 21:19 | 35.05968 | -89.97104 | 313 ft | 5 kts | 342° |
| 2026-04-25 21:19 | 35.05997 | -89.97111 | 311 ft | 4 kts | 358° |
| 2026-04-25 21:20 | 35.06008 | -89.97110 | 310 ft | 0 kts | 5° |